createdAt,value
2023-04-27T00:03:06.567Z,11.69
2023-04-27T00:08:09.544Z,11.66
2023-04-27T00:13:12.130Z,11.62
2023-04-27T00:18:14.884Z,11.62
2023-04-27T00:23:17.460Z,11.63
2023-04-27T00:28:20.074Z,11.63
2023-04-27T00:33:22.680Z,11.62
2023-04-27T00:38:25.214Z,11.60
2023-04-27T00:43:27.842Z,11.51
2023-04-27T00:48:30.455Z,11.35
2023-04-27T00:53:36.483Z,11.30
2023-04-27T00:58:39.159Z,11.22
2023-04-27T01:03:42.221Z,11.17
2023-04-27T01:08:44.895Z,11.07
2023-04-27T01:13:49.916Z,11.07
2023-04-27T01:18:52.422Z,11.04
2023-04-27T01:23:56.361Z,11.07
2023-04-27T01:28:58.930Z,10.97
2023-04-27T01:34:04.728Z,10.90
2023-04-27T01:39:09.651Z,10.82
2023-04-27T01:44:12.419Z,10.75
2023-04-27T01:49:15.949Z,10.68
2023-04-27T01:54:18.856Z,10.70
2023-04-27T01:59:22.016Z,10.67
2023-04-27T02:04:24.752Z,10.70
2023-04-27T02:09:27.453Z,10.73
2023-04-27T02:14:30.047Z,10.86
2023-04-27T02:19:32.555Z,10.88
2023-04-27T02:24:36.040Z,11.01
2023-04-27T02:29:39.374Z,11.12
2023-04-27T02:34:42.691Z,11.21
2023-04-27T02:39:45.235Z,11.30
2023-04-27T02:44:47.758Z,11.39
2023-04-27T02:49:50.203Z,11.55
2023-04-27T02:54:54.160Z,11.68
2023-04-27T02:59:57.915Z,11.84
2023-04-27T03:05:00.545Z,11.96
2023-04-27T03:10:03.173Z,12.13
2023-04-27T03:15:06.984Z,12.24
2023-04-27T03:20:12.538Z,12.38
2023-04-27T03:25:15.303Z,12.54
2023-04-27T03:30:22.543Z,12.72
2023-04-27T03:35:25.557Z,12.89
2023-04-27T03:40:28.221Z,13.07
2023-04-27T03:45:30.679Z,13.23
2023-04-27T03:50:34.362Z,13.34
2023-04-27T03:55:44.445Z,13.54
2023-04-27T04:00:47.878Z,13.70
2023-04-27T04:05:50.616Z,13.87
2023-04-27T04:10:53.370Z,14.00
2023-04-27T04:16:09.710Z,14.18
2023-04-27T04:21:12.518Z,14.33
2023-04-27T04:26:15.654Z,14.45
2023-04-27T04:31:19.074Z,14.63
2023-04-27T04:36:23.084Z,14.80
2023-04-27T04:41:29.571Z,14.95
2023-04-27T04:46:34.255Z,15.11
2023-04-27T04:51:37.122Z,15.26
2023-04-27T04:56:41.471Z,15.43
2023-04-27T05:01:44.090Z,15.58
2023-04-27T05:06:47.277Z,15.72
2023-04-27T05:11:52.560Z,15.89
2023-04-27T05:16:55.058Z,15.94
2023-04-27T05:21:58.861Z,16.06
2023-04-27T05:27:06.647Z,16.22
2023-04-27T05:32:12.058Z,16.35
2023-04-27T05:37:15.269Z,16.46
2023-04-27T05:42:17.832Z,16.63
2023-04-27T05:47:20.512Z,16.78
2023-04-27T05:52:29.668Z,16.88
2023-04-27T05:57:32.460Z,17.09
2023-04-27T06:02:35.818Z,17.26
2023-04-27T06:07:38.824Z,17.46
2023-04-27T06:12:46.317Z,17.60
2023-04-27T06:17:49.056Z,17.74
2023-04-27T06:22:51.767Z,18.09
2023-04-27T06:27:58.495Z,18.25
2023-04-27T06:33:01.522Z,18.44
2023-04-27T06:38:06.669Z,18.75
2023-04-27T06:43:10.252Z,19.06
2023-04-27T06:48:12.896Z,19.25
2023-04-27T06:53:17.621Z,19.30
2023-04-27T06:58:20.386Z,19.35
2023-04-27T07:03:23.267Z,19.56
2023-04-27T07:08:26.257Z,19.83
2023-04-27T07:13:30.167Z,19.89
2023-04-27T07:18:32.645Z,19.95
2023-04-27T07:23:35.251Z,20.10
2023-04-27T07:28:39.464Z,20.31
2023-04-27T07:33:42.224Z,20.64
2023-04-27T07:38:45.982Z,20.96
2023-04-27T07:43:49.162Z,21.25
2023-04-27T07:48:52.646Z,21.65
2023-04-27T07:54:13.365Z,21.77
2023-04-27T07:59:16.114Z,21.97
2023-04-27T08:04:19.182Z,22.17
2023-04-27T08:09:22.006Z,22.52
2023-04-27T08:14:26.071Z,22.68
2023-04-27T08:19:28.534Z,22.64
2023-04-27T08:24:31.019Z,22.55
2023-04-27T08:29:35.153Z,22.51
2023-04-27T08:34:40.685Z,22.58
2023-04-27T08:39:43.305Z,22.76
2023-04-27T08:44:46.189Z,22.75
2023-04-27T08:49:48.652Z,22.72
2023-04-27T08:54:51.227Z,22.62
2023-04-27T09:00:04.174Z,22.76
2023-04-27T09:05:16.394Z,22.83
2023-04-27T09:10:18.893Z,22.88
2023-04-27T09:15:22.033Z,22.92
2023-04-27T09:20:27.567Z,23.11
2023-04-27T09:25:32.560Z,23.06
2023-04-27T09:30:37.265Z,23.06
2023-04-27T09:35:43.903Z,23.10
2023-04-27T09:40:46.670Z,23.06
2023-04-27T09:45:50.519Z,23.42
2023-04-27T09:50:53.676Z,23.81
2023-04-27T09:56:30.024Z,23.84
2023-04-27T10:01:42.376Z,24.08
2023-04-27T10:07:07.374Z,24.16
2023-04-27T10:12:20.753Z,24.25
2023-04-27T10:17:50.374Z,24.58
2023-04-27T10:22:53.430Z,24.65
2023-04-27T10:27:56.990Z,24.84
2023-04-27T10:33:04.763Z,24.66
2023-04-27T10:38:15.529Z,25.00
2023-04-27T10:43:18.390Z,25.33
2023-04-27T10:48:21.163Z,26.47
2023-04-27T10:53:23.988Z,27.73
2023-04-27T10:58:34.668Z,28.51
2023-04-27T11:03:59.085Z,29.07
2023-04-27T11:09:01.985Z,29.40
2023-04-27T11:14:04.833Z,29.93
2023-04-27T11:19:07.577Z,30.30
2023-04-27T11:24:15.282Z,30.58
2023-04-27T11:29:18.262Z,30.76
2023-04-27T11:34:25.955Z,31.32
2023-04-27T11:39:29.884Z,31.70
2023-04-27T11:44:35.551Z,32.04
2023-04-27T11:49:38.889Z,32.39
2023-04-27T11:54:52.180Z,32.68
2023-04-27T11:59:56.071Z,32.90
2023-04-27T12:05:00.245Z,33.16
2023-04-27T12:10:03.207Z,33.27
2023-04-27T12:15:08.841Z,33.23
2023-04-27T12:20:12.517Z,33.39
2023-04-27T12:25:15.418Z,33.42
2023-04-27T12:30:18.098Z,33.72
2023-04-27T12:35:20.693Z,34.10
2023-04-27T12:40:23.528Z,34.24
2023-04-27T12:45:26.028Z,34.44
2023-04-27T12:50:28.569Z,34.64
2023-04-27T12:55:33.831Z,34.61
2023-04-27T13:00:37.450Z,34.72
2023-04-27T13:05:39.955Z,34.75
2023-04-27T13:10:42.624Z,35.04
2023-04-27T13:15:45.192Z,35.03
2023-04-27T13:20:48.871Z,34.85
2023-04-27T13:25:51.380Z,34.99
2023-04-27T13:30:53.888Z,35.05
2023-04-27T13:35:56.563Z,35.06
2023-04-27T13:40:58.980Z,34.95
2023-04-27T13:46:02.733Z,34.95
2023-04-27T13:51:05.455Z,34.92
2023-04-27T13:56:08.118Z,33.97
2023-04-27T14:01:10.711Z,33.47
2023-04-27T14:06:13.491Z,33.90
2023-04-27T14:11:16.016Z,34.02
2023-04-27T14:16:18.555Z,34.11
2023-04-27T14:21:21.275Z,33.18
2023-04-27T14:26:23.827Z,32.62
2023-04-27T14:31:29.654Z,32.28
2023-04-27T14:36:33.870Z,32.35
2023-04-27T14:41:37.769Z,32.41
2023-04-27T14:46:40.467Z,32.07
2023-04-27T14:51:43.753Z,31.56
2023-04-27T14:56:47.876Z,31.41
2023-04-27T15:01:50.840Z,30.78
2023-04-27T15:06:56.103Z,29.88
2023-04-27T15:12:01.923Z,28.82
2023-04-27T15:17:04.701Z,28.67
2023-04-27T15:22:07.488Z,28.51
2023-04-27T15:27:10.299Z,27.67
2023-04-27T15:32:12.941Z,26.49
2023-04-27T15:37:15.689Z,26.04
2023-04-27T15:42:18.355Z,24.78
2023-04-27T15:47:26.163Z,24.01
2023-04-27T15:52:28.822Z,23.05
2023-04-27T15:57:31.462Z,22.24
2023-04-27T16:02:34.753Z,21.74
2023-04-27T16:07:39.894Z,21.25
2023-04-27T16:12:42.800Z,20.81
2023-04-27T16:17:45.569Z,20.50
2023-04-27T16:22:48.121Z,20.14
2023-04-27T16:27:51.270Z,19.97
2023-04-27T16:32:53.851Z,19.78
2023-04-27T16:37:58.755Z,19.57
2023-04-27T16:43:01.400Z,19.41
2023-04-27T16:48:04.071Z,19.30
2023-04-27T16:53:14.027Z,19.18
2023-04-27T16:58:16.933Z,19.08
2023-04-27T17:03:19.499Z,19.01
2023-04-27T17:08:22.091Z,18.96
2023-04-27T17:13:25.401Z,18.87
2023-04-27T17:18:27.887Z,18.76
2023-04-27T17:23:34.147Z,18.64
2023-04-27T17:28:37.104Z,18.52
2023-04-27T17:33:39.687Z,18.41
2023-04-27T17:38:42.210Z,18.26
2023-04-27T17:43:44.885Z,18.10
2023-04-27T17:48:47.486Z,18.04
2023-04-27T17:54:09.840Z,17.87
2023-04-27T17:59:12.577Z,17.82
2023-04-27T18:04:15.360Z,17.73
2023-04-27T18:09:18.379Z,17.64
2023-04-27T18:14:20.971Z,17.52
2023-04-27T18:19:23.460Z,17.47
2023-04-27T18:24:27.163Z,17.35
2023-04-27T18:29:32.863Z,17.27
2023-04-27T18:34:38.658Z,17.20
2023-04-27T18:39:41.272Z,17.17
2023-04-27T18:44:43.825Z,17.18
2023-04-27T18:49:46.348Z,17.21
2023-04-27T18:54:49.612Z,17.18
2023-04-27T18:59:52.292Z,17.07
2023-04-27T19:05:11.014Z,16.91
2023-04-27T19:10:15.222Z,16.91
2023-04-27T19:15:20.041Z,16.80
2023-04-27T19:20:22.513Z,16.78
2023-04-27T19:25:25.394Z,16.72
2023-04-27T19:30:28.008Z,16.64
2023-04-27T19:35:30.640Z,16.66
2023-04-27T19:40:33.682Z,16.58
2023-04-27T19:45:38.718Z,16.57
2023-04-27T19:50:42.087Z,16.51
2023-04-27T19:55:44.789Z,16.35
2023-04-27T20:00:47.249Z,16.19
2023-04-27T20:05:50.562Z,16.03
2023-04-27T20:10:53.261Z,15.92
2023-04-27T20:15:57.809Z,15.82
2023-04-27T20:21:00.356Z,15.70
2023-04-27T20:26:03.186Z,15.62
2023-04-27T20:31:05.707Z,15.45
2023-04-27T20:36:17.087Z,15.36
2023-04-27T20:41:22.634Z,15.19
2023-04-27T20:46:28.073Z,15.19
2023-04-27T20:51:31.046Z,15.14
2023-04-27T20:56:33.924Z,15.07
2023-04-27T21:01:36.509Z,15.02
2023-04-27T21:06:39.754Z,14.95
2023-04-27T21:11:42.309Z,14.93
2023-04-27T21:16:45.675Z,14.96
2023-04-27T21:21:48.073Z,14.96
2023-04-27T21:26:50.668Z,15.01
2023-04-27T21:31:54.760Z,15.05
2023-04-27T21:36:57.331Z,14.96
2023-04-27T21:42:00.108Z,14.90
2023-04-27T21:47:02.572Z,14.84
2023-04-27T21:52:05.300Z,14.68
2023-04-27T21:57:10.938Z,14.63
2023-04-27T22:02:13.817Z,14.68
2023-04-27T22:07:19.336Z,14.64
2023-04-27T22:12:24.934Z,14.56
2023-04-27T22:17:28.124Z,14.48
2023-04-27T22:22:30.897Z,14.44
2023-04-27T22:27:42.076Z,14.39
2023-04-27T22:32:47.630Z,14.28
2023-04-27T22:37:50.634Z,14.19
2023-04-27T22:42:56.731Z,14.09
2023-04-27T22:48:02.288Z,13.98
2023-04-27T22:53:04.990Z,13.90
2023-04-27T22:58:07.407Z,13.83
2023-04-27T23:03:11.523Z,13.74
2023-04-27T23:08:17.250Z,13.60
2023-04-27T23:13:26.968Z,13.57
2023-04-27T23:18:29.470Z,13.43
2023-04-27T23:23:32.014Z,13.36
2023-04-27T23:28:53.179Z,13.33
2023-04-27T23:33:58.533Z,13.26
2023-04-27T23:39:01.044Z,13.23
2023-04-27T23:44:03.994Z,13.16
2023-04-27T23:49:06.725Z,13.12
2023-04-27T23:54:09.379Z,13.12
2023-04-27T23:59:11.963Z,13.15
